sensor_id;sensor_type;location;lat;lon;timestamp;temperature;humidity
70826;SHT31;58446;41.490;22.098;2023-08-06T00:00:09;26.36;62.66
70826;SHT31;58446;41.490;22.098;2023-08-06T00:02:35;26.30;62.60
70826;SHT31;58446;41.490;22.098;2023-08-06T00:05:00;26.21;62.89
70826;SHT31;58446;41.490;22.098;2023-08-06T00:07:26;26.14;63.23
70826;SHT31;58446;41.490;22.098;2023-08-06T00:09:52;26.26;62.81
70826;SHT31;58446;41.490;22.098;2023-08-06T00:12:17;26.01;63.58
70826;SHT31;58446;41.490;22.098;2023-08-06T00:14:43;26.03;63.36
70826;SHT31;58446;41.490;22.098;2023-08-06T00:17:09;26.16;62.98
70826;SHT31;58446;41.490;22.098;2023-08-06T00:19:34;25.62;65.65
70826;SHT31;58446;41.490;22.098;2023-08-06T00:22:00;25.90;64.05
70826;SHT31;58446;41.490;22.098;2023-08-06T00:24:27;25.87;64.09
70826;SHT31;58446;41.490;22.098;2023-08-06T00:26:53;26.04;63.47
70826;SHT31;58446;41.490;22.098;2023-08-06T00:29:18;26.14;63.39
70826;SHT31;58446;41.490;22.098;2023-08-06T00:31:44;26.09;63.21
70826;SHT31;58446;41.490;22.098;2023-08-06T00:34:10;26.07;63.10
70826;SHT31;58446;41.490;22.098;2023-08-06T00:36:35;25.97;64.09
70826;SHT31;58446;41.490;22.098;2023-08-06T00:39:01;26.17;62.75
70826;SHT31;58446;41.490;22.098;2023-08-06T00:41:27;26.10;62.86
70826;SHT31;58446;41.490;22.098;2023-08-06T00:43:52;26.36;62.00
70826;SHT31;58446;41.490;22.098;2023-08-06T00:46:18;26.24;62.33
70826;SHT31;58446;41.490;22.098;2023-08-06T00:48:44;26.31;61.82
70826;SHT31;58446;41.490;22.098;2023-08-06T00:51:10;26.36;61.66
70826;SHT31;58446;41.490;22.098;2023-08-06T00:53:38;26.38;61.52
70826;SHT31;58446;41.490;22.098;2023-08-06T00:56:04;26.14;61.87
70826;SHT31;58446;41.490;22.098;2023-08-06T00:58:30;26.13;61.85
70826;SHT31;58446;41.490;22.098;2023-08-06T01:00:56;26.16;61.72
70826;SHT31;58446;41.490;22.098;2023-08-06T01:03:22;25.76;63.10
70826;SHT31;58446;41.490;22.098;2023-08-06T01:05:47;25.52;63.60
70826;SHT31;58446;41.490;22.098;2023-08-06T01:09:19;25.56;63.48
70826;SHT31;58446;41.490;22.098;2023-08-06T01:11:18;25.56;63.39
70826;SHT31;58446;41.490;22.098;2023-08-06T01:13:48;25.25;64.47
70826;SHT31;58446;41.490;22.098;2023-08-06T01:16:19;25.31;64.41
70826;SHT31;58446;41.490;22.098;2023-08-06T01:18:47;25.10;65.48
70826;SHT31;58446;41.490;22.098;2023-08-06T01:21:18;25.43;64.04
70826;SHT31;58446;41.490;22.098;2023-08-06T01:23:45;25.22;64.68
70826;SHT31;58446;41.490;22.098;2023-08-06T01:26:33;25.45;64.33
70826;SHT31;58446;41.490;22.098;2023-08-06T01:29:41;25.37;64.85
70826;SHT31;58446;41.490;22.098;2023-08-06T01:32:10;25.63;63.27
70826;SHT31;58446;41.490;22.098;2023-08-06T01:34:39;25.70;63.64
70826;SHT31;58446;41.490;22.098;2023-08-06T01:37:06;25.37;65.04
70826;SHT31;58446;41.490;22.098;2023-08-06T01:39:35;25.27;65.05
70826;SHT31;58446;41.490;22.098;2023-08-06T01:42:00;25.34;64.63
70826;SHT31;58446;41.490;22.098;2023-08-06T01:44:26;25.25;64.61
70826;SHT31;58446;41.490;22.098;2023-08-06T01:46:52;25.18;65.03
70826;SHT31;58446;41.490;22.098;2023-08-06T01:49:17;25.25;64.69
70826;SHT31;58446;41.490;22.098;2023-08-06T01:51:43;25.45;63.80
70826;SHT31;58446;41.490;22.098;2023-08-06T01:54:09;25.45;63.88
70826;SHT31;58446;41.490;22.098;2023-08-06T01:56:34;25.72;62.82
70826;SHT31;58446;41.490;22.098;2023-08-06T01:59:00;25.59;63.47
70826;SHT31;58446;41.490;22.098;2023-08-06T02:01:25;25.89;62.32
70826;SHT31;58446;41.490;22.098;2023-08-06T02:03:51;25.73;62.82
70826;SHT31;58446;41.490;22.098;2023-08-06T02:06:17;25.55;63.43
70826;SHT31;58446;41.490;22.098;2023-08-06T02:08:42;25.53;63.71
70826;SHT31;58446;41.490;22.098;2023-08-06T02:11:08;25.35;64.35
70826;SHT31;58446;41.490;22.098;2023-08-06T02:13:34;25.31;64.08
70826;SHT31;58446;41.490;22.098;2023-08-06T02:15:59;25.53;63.37
70826;SHT31;58446;41.490;22.098;2023-08-06T02:18:25;25.61;63.20
70826;SHT31;58446;41.490;22.098;2023-08-06T02:21:00;25.49;63.47
70826;SHT31;58446;41.490;22.098;2023-08-06T02:23:26;25.58;63.32
70826;SHT31;58446;41.490;22.098;2023-08-06T02:26:02;25.49;63.37
70826;SHT31;58446;41.490;22.098;2023-08-06T02:28:29;25.62;62.90
70826;SHT31;58446;41.490;22.098;2023-08-06T02:30:55;25.45;63.31
70826;SHT31;58446;41.490;22.098;2023-08-06T02:33:20;25.28;64.39
70826;SHT31;58446;41.490;22.098;2023-08-06T02:35:46;25.03;64.62
70826;SHT31;58446;41.490;22.098;2023-08-06T02:38:12;24.20;66.60
70826;SHT31;58446;41.490;22.098;2023-08-06T02:40:46;23.61;68.34
70826;SHT31;58446;41.490;22.098;2023-08-06T02:43:12;23.53;68.86
70826;SHT31;58446;41.490;22.098;2023-08-06T02:45:38;24.35;66.67
70826;SHT31;58446;41.490;22.098;2023-08-06T02:48:04;24.83;65.18
70826;SHT31;58446;41.490;22.098;2023-08-06T02:50:29;25.24;63.84
70826;SHT31;58446;41.490;22.098;2023-08-06T02:52:55;25.18;64.21
70826;SHT31;58446;41.490;22.098;2023-08-06T02:55:21;25.18;64.10
70826;SHT31;58446;41.490;22.098;2023-08-06T02:57:46;25.31;63.52
70826;SHT31;58446;41.490;22.098;2023-08-06T03:00:12;25.27;64.32
70826;SHT31;58446;41.490;22.098;2023-08-06T03:02:38;25.39;63.16
70826;SHT31;58446;41.490;22.098;2023-08-06T03:05:04;25.38;63.09
70826;SHT31;58446;41.490;22.098;2023-08-06T03:07:31;25.46;62.92
70826;SHT31;58446;41.490;22.098;2023-08-06T03:09:58;25.50;62.90
70826;SHT31;58446;41.490;22.098;2023-08-06T03:12:26;25.46;63.16
70826;SHT31;58446;41.490;22.098;2023-08-06T03:14:51;25.61;62.61
70826;SHT31;58446;41.490;22.098;2023-08-06T03:17:17;25.45;63.37
70826;SHT31;58446;41.490;22.098;2023-08-06T03:19:43;25.53;62.84
70826;SHT31;58446;41.490;22.098;2023-08-06T03:22:08;25.28;63.71
70826;SHT31;58446;41.490;22.098;2023-08-06T03:24:34;25.27;63.91
70826;SHT31;58446;41.490;22.098;2023-08-06T03:26:59;25.21;63.97
70826;SHT31;58446;41.490;22.098;2023-08-06T03:29:25;25.25;63.87
70826;SHT31;58446;41.490;22.098;2023-08-06T03:31:52;25.28;64.13
70826;SHT31;58446;41.490;22.098;2023-08-06T03:34:17;25.37;63.42
70826;SHT31;58446;41.490;22.098;2023-08-06T03:36:43;25.42;63.29
70826;SHT31;58446;41.490;22.098;2023-08-06T03:39:09;25.35;63.50
70826;SHT31;58446;41.490;22.098;2023-08-06T03:41:34;25.48;62.98
70826;SHT31;58446;41.490;22.098;2023-08-06T03:44:00;25.46;63.38
70826;SHT31;58446;41.490;22.098;2023-08-06T03:46:28;25.41;63.78
70826;SHT31;58446;41.490;22.098;2023-08-06T03:48:53;25.24;63.80
70826;SHT31;58446;41.490;22.098;2023-08-06T03:51:19;25.31;63.50
70826;SHT31;58446;41.490;22.098;2023-08-06T03:53:45;25.48;62.95
70826;SHT31;58446;41.490;22.098;2023-08-06T03:56:10;25.61;62.67
70826;SHT31;58446;41.490;22.098;2023-08-06T03:58:36;25.55;62.99
70826;SHT31;58446;41.490;22.098;2023-08-06T04:01:02;25.37;63.73
70826;SHT31;58446;41.490;22.098;2023-08-06T04:03:28;25.27;64.58
70826;SHT31;58446;41.490;22.098;2023-08-06T04:05:54;24.91;65.05
70826;SHT31;58446;41.490;22.098;2023-08-06T04:08:20;24.97;64.47
70826;SHT31;58446;41.490;22.098;2023-08-06T04:10:49;25.07;64.47
70826;SHT31;58446;41.490;22.098;2023-08-06T04:13:15;25.01;64.54
70826;SHT31;58446;41.490;22.098;2023-08-06T04:15:41;25.08;64.13
70826;SHT31;58446;41.490;22.098;2023-08-06T04:18:06;25.11;64.16
70826;SHT31;58446;41.490;22.098;2023-08-06T04:20:32;25.15;63.89
70826;SHT31;58446;41.490;22.098;2023-08-06T04:22:57;25.12;64.72
70826;SHT31;58446;41.490;22.098;2023-08-06T04:25:23;24.90;64.97
70826;SHT31;58446;41.490;22.098;2023-08-06T04:27:49;24.74;65.33
70826;SHT31;58446;41.490;22.098;2023-08-06T04:30:15;24.91;64.76
70826;SHT31;58446;41.490;22.098;2023-08-06T04:32:41;25.14;64.49
70826;SHT31;58446;41.490;22.098;2023-08-06T04:35:07;25.34;64.01
70826;SHT31;58446;41.490;22.098;2023-08-06T04:37:33;25.35;63.94
70826;SHT31;58446;41.490;22.098;2023-08-06T04:39:58;25.17;64.68
70826;SHT31;58446;41.490;22.098;2023-08-06T04:42:24;25.25;64.46
70826;SHT31;58446;41.490;22.098;2023-08-06T04:44:50;25.35;63.79
70826;SHT31;58446;41.490;22.098;2023-08-06T04:47:16;25.53;63.58
70826;SHT31;58446;41.490;22.098;2023-08-06T04:49:42;25.15;65.21
70826;SHT31;58446;41.490;22.098;2023-08-06T04:52:07;25.24;64.24
70826;SHT31;58446;41.490;22.098;2023-08-06T04:54:33;25.65;63.00
70826;SHT31;58446;41.490;22.098;2023-08-06T04:56:59;25.76;62.69
70826;SHT31;58446;41.490;22.098;2023-08-06T04:59:25;25.76;63.09
70826;SHT31;58446;41.490;22.098;2023-08-06T05:01:50;25.83;62.92
70826;SHT31;58446;41.490;22.098;2023-08-06T05:04:16;25.82;62.38
70826;SHT31;58446;41.490;22.098;2023-08-06T05:06:41;26.23;61.21
70826;SHT31;58446;41.490;22.098;2023-08-06T05:09:07;26.59;60.17
70826;SHT31;58446;41.490;22.098;2023-08-06T05:11:33;26.78;60.55
70826;SHT31;58446;41.490;22.098;2023-08-06T05:13:58;26.75;60.38
70826;SHT31;58446;41.490;22.098;2023-08-06T05:16:24;26.81;60.53
70826;SHT31;58446;41.490;22.098;2023-08-06T05:18:50;26.88;59.98
70826;SHT31;58446;41.490;22.098;2023-08-06T05:21:15;26.87;60.37
70826;SHT31;58446;41.490;22.098;2023-08-06T05:23:42;26.89;60.27
70826;SHT31;58446;41.490;22.098;2023-08-06T05:26:07;27.13;59.68
70826;SHT31;58446;41.490;22.098;2023-08-06T05:28:34;27.23;59.12
70826;SHT31;58446;41.490;22.098;2023-08-06T05:31:03;27.42;58.80
70826;SHT31;58446;41.490;22.098;2023-08-06T05:33:30;27.46;57.59
70826;SHT31;58446;41.490;22.098;2023-08-06T05:35:56;27.68;58.00
70826;SHT31;58446;41.490;22.098;2023-08-06T05:38:21;27.74;57.43
70826;SHT31;58446;41.490;22.098;2023-08-06T05:40:47;27.80;57.47
70826;SHT31;58446;41.490;22.098;2023-08-06T05:43:13;27.88;56.96
70826;SHT31;58446;41.490;22.098;2023-08-06T05:45:38;28.07;55.82
70826;SHT31;58446;41.490;22.098;2023-08-06T05:48:04;28.07;56.92
70826;SHT31;58446;41.490;22.098;2023-08-06T05:50:30;27.90;57.40
70826;SHT31;58446;41.490;22.098;2023-08-06T05:52:55;27.88;56.58
70826;SHT31;58446;41.490;22.098;2023-08-06T05:55:21;27.61;58.03
70826;SHT31;58446;41.490;22.098;2023-08-06T05:57:47;27.45;58.99
70826;SHT31;58446;41.490;22.098;2023-08-06T06:00:13;27.26;58.58
70826;SHT31;58446;41.490;22.098;2023-08-06T06:02:38;27.10;59.51
70826;SHT31;58446;41.490;22.098;2023-08-06T06:05:04;27.30;59.35
70826;SHT31;58446;41.490;22.098;2023-08-06T06:07:30;27.64;58.56
70826;SHT31;58446;41.490;22.098;2023-08-06T06:09:55;27.87;57.86
70826;SHT31;58446;41.490;22.098;2023-08-06T06:12:21;27.93;58.02
70826;SHT31;58446;41.490;22.098;2023-08-06T06:14:47;28.02;58.29
70826;SHT31;58446;41.490;22.098;2023-08-06T06:17:13;28.19;57.77
70826;SHT31;58446;41.490;22.098;2023-08-06T06:19:39;28.44;57.64
70826;SHT31;58446;41.490;22.098;2023-08-06T06:22:04;28.35;57.21
70826;SHT31;58446;41.490;22.098;2023-08-06T06:24:30;28.49;56.59
70826;SHT31;58446;41.490;22.098;2023-08-06T06:26:56;28.41;57.23
70826;SHT31;58446;41.490;22.098;2023-08-06T06:29:21;28.21;57.20
70826;SHT31;58446;41.490;22.098;2023-08-06T06:31:47;28.05;57.57
70826;SHT31;58446;41.490;22.098;2023-08-06T06:34:12;27.74;58.02
70826;SHT31;58446;41.490;22.098;2023-08-06T06:36:38;27.57;58.27
70826;SHT31;58446;41.490;22.098;2023-08-06T06:39:04;27.43;58.25
70826;SHT31;58446;41.490;22.098;2023-08-06T06:41:30;27.32;58.52
70826;SHT31;58446;41.490;22.098;2023-08-06T06:43:58;27.15;59.62
70826;SHT31;58446;41.490;22.098;2023-08-06T06:46:24;27.28;58.61
70826;SHT31;58446;41.490;22.098;2023-08-06T06:48:50;27.46;58.26
70826;SHT31;58446;41.490;22.098;2023-08-06T06:51:15;27.80;57.14
70826;SHT31;58446;41.490;22.098;2023-08-06T06:53:41;27.94;56.99
70826;SHT31;58446;41.490;22.098;2023-08-06T06:56:10;28.07;57.46
70826;SHT31;58446;41.490;22.098;2023-08-06T06:58:36;28.22;56.98
70826;SHT31;58446;41.490;22.098;2023-08-06T07:01:04;28.31;55.21
70826;SHT31;58446;41.490;22.098;2023-08-06T07:03:29;28.46;55.92
70826;SHT31;58446;41.490;22.098;2023-08-06T07:05:58;28.62;56.58
70826;SHT31;58446;41.490;22.098;2023-08-06T07:08:25;28.87;54.80
70826;SHT31;58446;41.490;22.098;2023-08-06T07:11:01;28.99;53.74
70826;SHT31;58446;41.490;22.098;2023-08-06T07:13:27;28.89;54.29
70826;SHT31;58446;41.490;22.098;2023-08-06T07:15:54;28.84;55.37
70826;SHT31;58446;41.490;22.098;2023-08-06T07:18:20;28.60;55.84
70826;SHT31;58446;41.490;22.098;2023-08-06T07:20:53;28.44;54.82
70826;SHT31;58446;41.490;22.098;2023-08-06T07:23:29;28.18;55.37
70826;SHT31;58446;41.490;22.098;2023-08-06T07:25:54;28.19;55.03
70826;SHT31;58446;41.490;22.098;2023-08-06T07:28:20;27.96;55.05
70826;SHT31;58446;41.490;22.098;2023-08-06T07:30:46;28.08;56.24
70826;SHT31;58446;41.490;22.098;2023-08-06T07:33:12;28.09;55.26
70826;SHT31;58446;41.490;22.098;2023-08-06T07:35:37;28.21;54.86
70826;SHT31;58446;41.490;22.098;2023-08-06T07:38:03;28.52;55.73
70826;SHT31;58446;41.490;22.098;2023-08-06T07:40:29;28.66;55.36
70826;SHT31;58446;41.490;22.098;2023-08-06T07:42:55;28.96;56.01
70826;SHT31;58446;41.490;22.098;2023-08-06T07:45:21;29.16;54.09
70826;SHT31;58446;41.490;22.098;2023-08-06T07:47:57;29.04;55.01
70826;SHT31;58446;41.490;22.098;2023-08-06T07:50:30;28.87;54.15
70826;SHT31;58446;41.490;22.098;2023-08-06T07:52:57;28.70;54.50
70826;SHT31;58446;41.490;22.098;2023-08-06T07:55:22;28.77;54.72
70826;SHT31;58446;41.490;22.098;2023-08-06T07:57:48;29.06;54.76
70826;SHT31;58446;41.490;22.098;2023-08-06T08:00:15;29.33;53.63
70826;SHT31;58446;41.490;22.098;2023-08-06T08:02:40;29.34;52.56
70826;SHT31;58446;41.490;22.098;2023-08-06T08:05:06;29.48;54.04
70826;SHT31;58446;41.490;22.098;2023-08-06T08:07:34;29.57;53.68
70826;SHT31;58446;41.490;22.098;2023-08-06T08:10:06;29.61;52.69
70826;SHT31;58446;41.490;22.098;2023-08-06T08:12:35;29.67;52.76
70826;SHT31;58446;41.490;22.098;2023-08-06T08:15:01;29.62;52.45
70826;SHT31;58446;41.490;22.098;2023-08-06T08:17:27;29.64;51.69
70826;SHT31;58446;41.490;22.098;2023-08-06T08:19:53;29.47;51.85
70826;SHT31;58446;41.490;22.098;2023-08-06T08:22:18;29.21;53.59
70826;SHT31;58446;41.490;22.098;2023-08-06T08:24:44;29.26;53.41
70826;SHT31;58446;41.490;22.098;2023-08-06T08:27:09;29.44;54.45
70826;SHT31;58446;41.490;22.098;2023-08-06T08:29:35;29.55;52.92
70826;SHT31;58446;41.490;22.098;2023-08-06T08:32:01;29.53;52.87
70826;SHT31;58446;41.490;22.098;2023-08-06T08:34:27;29.67;52.33
70826;SHT31;58446;41.490;22.098;2023-08-06T08:36:52;29.59;51.70
70826;SHT31;58446;41.490;22.098;2023-08-06T08:39:18;29.57;51.27
70826;SHT31;58446;41.490;22.098;2023-08-06T08:41:44;29.65;51.81
70826;SHT31;58446;41.490;22.098;2023-08-06T08:44:10;29.53;51.75
70826;SHT31;58446;41.490;22.098;2023-08-06T08:46:37;29.74;51.10
70826;SHT31;58446;41.490;22.098;2023-08-06T08:49:04;29.79;51.45
70826;SHT31;58446;41.490;22.098;2023-08-06T08:51:30;29.98;51.06
70826;SHT31;58446;41.490;22.098;2023-08-06T08:53:56;29.99;50.37
70826;SHT31;58446;41.490;22.098;2023-08-06T08:56:23;29.75;51.24
70826;SHT31;58446;41.490;22.098;2023-08-06T08:58:49;29.43;51.34
70826;SHT31;58446;41.490;22.098;2023-08-06T09:01:15;29.39;51.62
70826;SHT31;58446;41.490;22.098;2023-08-06T09:03:43;29.71;51.36
70826;SHT31;58446;41.490;22.098;2023-08-06T09:06:11;29.96;51.82
70826;SHT31;58446;41.490;22.098;2023-08-06T09:08:50;30.05;51.38
70826;SHT31;58446;41.490;22.098;2023-08-06T09:11:17;29.77;50.64
70826;SHT31;58446;41.490;22.098;2023-08-06T09:13:46;29.53;50.89
70826;SHT31;58446;41.490;22.098;2023-08-06T09:16:12;29.46;50.75
70826;SHT31;58446;41.490;22.098;2023-08-06T09:18:39;29.75;52.33
70826;SHT31;58446;41.490;22.098;2023-08-06T09:21:05;29.92;52.09
70826;SHT31;58446;41.490;22.098;2023-08-06T09:23:31;29.85;50.32
70826;SHT31;58446;41.490;22.098;2023-08-06T09:25:58;30.01;50.83
70826;SHT31;58446;41.490;22.098;2023-08-06T09:28:24;30.12;49.52
70826;SHT31;58446;41.490;22.098;2023-08-06T09:30:52;30.20;49.16
70826;SHT31;58446;41.490;22.098;2023-08-06T09:33:22;30.22;49.81
70826;SHT31;58446;41.490;22.098;2023-08-06T09:35:48;30.33;49.86
70826;SHT31;58446;41.490;22.098;2023-08-06T09:38:14;30.40;49.96
70826;SHT31;58446;41.490;22.098;2023-08-06T09:40:40;30.43;48.53
70826;SHT31;58446;41.490;22.098;2023-08-06T09:43:06;30.23;49.62
70826;SHT31;58446;41.490;22.098;2023-08-06T09:45:36;29.95;49.34
70826;SHT31;58446;41.490;22.098;2023-08-06T09:48:06;29.82;49.70
70826;SHT31;58446;41.490;22.098;2023-08-06T09:50:34;29.53;49.95
70826;SHT31;58446;41.490;22.098;2023-08-06T09:53:07;29.62;50.51
70826;SHT31;58446;41.490;22.098;2023-08-06T09:55:36;29.68;50.13
70826;SHT31;58446;41.490;22.098;2023-08-06T09:58:02;30.01;49.80
70826;SHT31;58446;41.490;22.098;2023-08-06T10:00:29;29.81;49.16
70826;SHT31;58446;41.490;22.098;2023-08-06T10:02:59;29.98;49.49
70826;SHT31;58446;41.490;22.098;2023-08-06T10:05:26;30.27;48.33
70826;SHT31;58446;41.490;22.098;2023-08-06T10:07:53;30.43;47.82
70826;SHT31;58446;41.490;22.098;2023-08-06T10:10:21;30.27;48.36
70826;SHT31;58446;41.490;22.098;2023-08-06T10:12:49;30.22;48.40
70826;SHT31;58446;41.490;22.098;2023-08-06T10:15:19;30.47;48.27
70826;SHT31;58446;41.490;22.098;2023-08-06T10:17:47;30.74;44.05
70826;SHT31;58446;41.490;22.098;2023-08-06T10:20:14;30.88;46.38
70826;SHT31;58446;41.490;22.098;2023-08-06T10:22:43;30.99;46.27
70826;SHT31;58446;41.490;22.098;2023-08-06T10:25:10;30.99;46.28
70826;SHT31;58446;41.490;22.098;2023-08-06T10:27:56;31.02;45.93
70826;SHT31;58446;41.490;22.098;2023-08-06T10:30:25;31.14;45.71
70826;SHT31;58446;41.490;22.098;2023-08-06T10:33:01;30.39;46.20
70826;SHT31;58446;41.490;22.098;2023-08-06T10:38:22;30.39;43.83
70826;SHT31;58446;41.490;22.098;2023-08-06T10:43:30;30.36;45.50
70826;SHT31;58446;41.490;22.098;2023-08-06T10:45:59;30.56;44.96
70826;SHT31;58446;41.490;22.098;2023-08-06T10:48:36;30.76;45.02
70826;SHT31;58446;41.490;22.098;2023-08-06T10:51:02;30.64;44.66
70826;SHT31;58446;41.490;22.098;2023-08-06T10:53:28;30.73;44.68
70826;SHT31;58446;41.490;22.098;2023-08-06T10:55:54;30.13;44.44
70826;SHT31;58446;41.490;22.098;2023-08-06T10:58:20;30.37;43.48
70826;SHT31;58446;41.490;22.098;2023-08-06T11:00:46;30.74;42.67
70826;SHT31;58446;41.490;22.098;2023-08-06T11:03:11;30.86;44.35
70826;SHT31;58446;41.490;22.098;2023-08-06T11:05:37;31.02;44.69
70826;SHT31;58446;41.490;22.098;2023-08-06T11:08:04;31.01;44.50
70826;SHT31;58446;41.490;22.098;2023-08-06T11:10:32;31.18;42.83
70826;SHT31;58446;41.490;22.098;2023-08-06T11:13:01;31.36;43.17
70826;SHT31;58446;41.490;22.098;2023-08-06T11:15:27;31.49;41.01
70826;SHT31;58446;41.490;22.098;2023-08-06T11:17:53;31.52;40.26
70826;SHT31;58446;41.490;22.098;2023-08-06T11:20:20;31.45;42.39
70826;SHT31;58446;41.490;22.098;2023-08-06T11:22:47;31.11;42.61
70826;SHT31;58446;41.490;22.098;2023-08-06T11:25:12;31.15;42.93
70826;SHT31;58446;41.490;22.098;2023-08-06T11:27:38;31.29;43.98
70826;SHT31;58446;41.490;22.098;2023-08-06T11:30:04;31.36;43.41
70826;SHT31;58446;41.490;22.098;2023-08-06T11:32:30;31.31;42.99
70826;SHT31;58446;41.490;22.098;2023-08-06T11:34:56;31.07;43.07
70826;SHT31;58446;41.490;22.098;2023-08-06T11:37:22;30.86;41.82
70826;SHT31;58446;41.490;22.098;2023-08-06T11:39:52;30.81;41.91
70826;SHT31;58446;41.490;22.098;2023-08-06T11:42:18;30.94;42.17
70826;SHT31;58446;41.490;22.098;2023-08-06T11:44:44;31.04;42.03
70826;SHT31;58446;41.490;22.098;2023-08-06T11:47:14;31.15;43.03
70826;SHT31;58446;41.490;22.098;2023-08-06T11:49:48;31.24;42.01
70826;SHT31;58446;41.490;22.098;2023-08-06T11:52:24;31.15;41.76
70826;SHT31;58446;41.490;22.098;2023-08-06T11:55:03;30.92;42.07
70826;SHT31;58446;41.490;22.098;2023-08-06T11:57:32;30.83;42.19
70826;SHT31;58446;41.490;22.098;2023-08-06T12:00:04;30.91;42.01
70826;SHT31;58446;41.490;22.098;2023-08-06T12:02:31;30.95;42.18
70826;SHT31;58446;41.490;22.098;2023-08-06T12:05:28;31.02;42.21
70826;SHT31;58446;41.490;22.098;2023-08-06T12:07:51;30.98;41.11
70826;SHT31;58446;41.490;22.098;2023-08-06T12:10:18;30.94;42.07
70826;SHT31;58446;41.490;22.098;2023-08-06T12:12:47;31.02;41.83
70826;SHT31;58446;41.490;22.098;2023-08-06T12:15:14;31.11;40.82
70826;SHT31;58446;41.490;22.098;2023-08-06T12:17:40;31.50;42.25
70826;SHT31;58446;41.490;22.098;2023-08-06T12:20:07;31.36;40.14
70826;SHT31;58446;41.490;22.098;2023-08-06T12:22:34;31.31;40.11
70826;SHT31;58446;41.490;22.098;2023-08-06T12:25:07;31.27;40.29
70826;SHT31;58446;41.490;22.098;2023-08-06T12:27:34;31.49;40.66
70826;SHT31;58446;41.490;22.098;2023-08-06T12:30:00;31.50;40.31
70826;SHT31;58446;41.490;22.098;2023-08-06T12:32:26;31.28;39.46
70826;SHT31;58446;41.490;22.098;2023-08-06T12:34:52;31.52;40.79
70826;SHT31;58446;41.490;22.098;2023-08-06T12:37:17;31.76;39.40
70826;SHT31;58446;41.490;22.098;2023-08-06T12:39:43;31.85;39.01
70826;SHT31;58446;41.490;22.098;2023-08-06T12:42:09;31.80;38.42
70826;SHT31;58446;41.490;22.098;2023-08-06T12:44:36;31.89;38.84
70826;SHT31;58446;41.490;22.098;2023-08-06T12:47:02;31.87;38.54
70826;SHT31;58446;41.490;22.098;2023-08-06T12:49:27;32.06;37.55
70826;SHT31;58446;41.490;22.098;2023-08-06T12:51:54;32.13;37.50
70826;SHT31;58446;41.490;22.098;2023-08-06T12:54:22;32.21;37.20
70826;SHT31;58446;41.490;22.098;2023-08-06T12:56:48;32.30;37.82
70826;SHT31;58446;41.490;22.098;2023-08-06T12:59:15;32.41;37.08
70826;SHT31;58446;41.490;22.098;2023-08-06T13:01:42;32.40;36.73
70826;SHT31;58446;41.490;22.098;2023-08-06T13:04:08;32.41;36.63
70826;SHT31;58446;41.490;22.098;2023-08-06T13:06:35;32.31;37.30
70826;SHT31;58446;41.490;22.098;2023-08-06T13:09:09;32.17;37.65
70826;SHT31;58446;41.490;22.098;2023-08-06T13:11:35;32.05;38.11
70826;SHT31;58446;41.490;22.098;2023-08-06T13:14:06;31.82;38.43
70826;SHT31;58446;41.490;22.098;2023-08-06T13:16:33;31.72;38.33
70826;SHT31;58446;41.490;22.098;2023-08-06T13:18:59;31.72;38.57
70826;SHT31;58446;41.490;22.098;2023-08-06T13:21:33;31.77;39.19
70826;SHT31;58446;41.490;22.098;2023-08-06T13:24:02;31.82;39.14
70826;SHT31;58446;41.490;22.098;2023-08-06T13:26:29;31.87;38.26
70826;SHT31;58446;41.490;22.098;2023-08-06T13:28:59;32.00;38.65
70826;SHT31;58446;41.490;22.098;2023-08-06T13:31:26;32.16;39.11
70826;SHT31;58446;41.490;22.098;2023-08-06T13:33:52;32.05;38.01
70826;SHT31;58446;41.490;22.098;2023-08-06T13:36:19;31.92;38.21
70826;SHT31;58446;41.490;22.098;2023-08-06T13:38:45;31.69;38.10
70826;SHT31;58446;41.490;22.098;2023-08-06T13:41:10;31.75;37.92
70826;SHT31;58446;41.490;22.098;2023-08-06T13:43:36;31.93;37.61
70826;SHT31;58446;41.490;22.098;2023-08-06T13:46:02;31.94;37.45
70826;SHT31;58446;41.490;22.098;2023-08-06T13:48:28;31.94;37.44
70826;SHT31;58446;41.490;22.098;2023-08-06T13:50:53;32.00;37.08
70826;SHT31;58446;41.490;22.098;2023-08-06T13:53:19;32.05;37.14
70826;SHT31;58446;41.490;22.098;2023-08-06T13:55:44;32.03;36.54
70826;SHT31;58446;41.490;22.098;2023-08-06T13:58:10;32.12;36.87
70826;SHT31;58446;41.490;22.098;2023-08-06T14:00:36;32.14;36.79
70826;SHT31;58446;41.490;22.098;2023-08-06T14:03:02;32.16;37.00
70826;SHT31;58446;41.490;22.098;2023-08-06T14:05:28;32.07;37.21
70826;SHT31;58446;41.490;22.098;2023-08-06T14:07:53;32.09;36.93
70826;SHT31;58446;41.490;22.098;2023-08-06T14:10:19;32.07;37.01
70826;SHT31;58446;41.490;22.098;2023-08-06T14:12:45;32.17;36.72
70826;SHT31;58446;41.490;22.098;2023-08-06T14:15:11;32.16;36.64
70826;SHT31;58446;41.490;22.098;2023-08-06T14:17:37;32.06;37.01
70826;SHT31;58446;41.490;22.098;2023-08-06T14:20:04;32.13;36.75
70826;SHT31;58446;41.490;22.098;2023-08-06T14:22:30;32.13;36.81
70826;SHT31;58446;41.490;22.098;2023-08-06T14:24:58;32.09;36.22
70826;SHT31;58446;41.490;22.098;2023-08-06T14:27:24;32.03;37.03
70826;SHT31;58446;41.490;22.098;2023-08-06T14:29:49;31.90;37.00
70826;SHT31;58446;41.490;22.098;2023-08-06T14:32:15;31.80;37.03
70826;SHT31;58446;41.490;22.098;2023-08-06T14:34:43;31.80;36.65
70826;SHT31;58446;41.490;22.098;2023-08-06T14:37:09;31.82;36.98
70826;SHT31;58446;41.490;22.098;2023-08-06T14:39:35;31.77;36.92
70826;SHT31;58446;41.490;22.098;2023-08-06T14:42:00;31.76;36.95
70826;SHT31;58446;41.490;22.098;2023-08-06T14:44:27;31.69;37.18
70826;SHT31;58446;41.490;22.098;2023-08-06T14:46:53;31.63;37.48
70826;SHT31;58446;41.490;22.098;2023-08-06T14:49:19;31.62;37.56
70826;SHT31;58446;41.490;22.098;2023-08-06T14:51:45;31.69;37.86
70826;SHT31;58446;41.490;22.098;2023-08-06T14:54:11;31.76;37.96
70826;SHT31;58446;41.490;22.098;2023-08-06T14:56:36;31.76;37.87
70826;SHT31;58446;41.490;22.098;2023-08-06T14:59:02;31.69;38.06
70826;SHT31;58446;41.490;22.098;2023-08-06T15:01:28;31.67;37.99
70826;SHT31;58446;41.490;22.098;2023-08-06T15:03:54;31.52;38.34
70826;SHT31;58446;41.490;22.098;2023-08-06T15:06:19;31.52;38.12
70826;SHT31;58446;41.490;22.098;2023-08-06T15:08:45;31.53;38.05
70826;SHT31;58446;41.490;22.098;2023-08-06T15:11:13;31.58;38.37
70826;SHT31;58446;41.490;22.098;2023-08-06T15:13:39;31.39;38.43
70826;SHT31;58446;41.490;22.098;2023-08-06T15:16:04;31.36;38.40
70826;SHT31;58446;41.490;22.098;2023-08-06T15:18:30;31.34;38.35